Time;durP1;ratioP1;P1;durP2;ratioP2;P2;SDS_P1;SDS_P2;PMS_P1;PMS_P2;Temp;Humidity;BMP_temperature;BMP_pressure;BME280_temperature;BME280_humidity;BME280_pressure;Samples;Min_cycle;Max_cycle;Signal;HPM_P1;HPM_P2
2023/12/03 00:01:59;;;;;;;21.00;12.10;;;-1.70;84.50;;;;;;5017712;28;20080;-91
2023/12/03 00:04:25;;;;;;;19.98;11.20;;;-1.60;84.40;;;;;;5020381;28;20022;-92
2023/12/03 00:06:54;;;;;;;18.08;12.48;;;-1.60;83.90;;;;;;5016627;28;20102;-92
2023/12/03 00:09:20;;;;;;;18.20;11.30;;;-1.70;85.30;;;;;;5020215;28;20022;-92
2023/12/03 00:11:46;;;;;;;23.80;14.35;;;-1.70;85.10;;;;;;5017190;28;20021;-93
2023/12/03 00:14:14;;;;;;;22.25;10.65;;;-1.60;85.50;;;;;;4997653;28;20032;-91
2023/12/03 00:16:40;;;;;;;;;;;-1.70;85.80;;;;;;5021805;28;20030;-92
2023/12/03 00:19:05;;;;;;;22.40;11.88;;;-1.70;86.10;;;;;;5016552;28;19994;-91
2023/12/03 00:21:31;;;;;;;19.02;12.82;;;-1.70;86.40;;;;;;5009384;28;20112;-93
2023/12/03 00:23:57;;;;;;;21.75;12.63;;;-1.60;85.60;;;;;;5003402;28;20079;-90
2023/12/03 00:26:25;;;;;;;24.35;13.82;;;-1.70;86.40;;;;;;5004150;28;20021;-91
2023/12/03 00:28:51;;;;;;;24.85;13.00;;;-1.60;86.80;;;;;;4997270;28;20355;-92
2023/12/03 00:31:17;;;;;;;25.13;12.45;;;-1.60;87.30;;;;;;5016899;28;20072;-92
2023/12/03 00:33:44;;;;;;;24.85;13.85;;;-1.60;87.40;;;;;;5016987;28;20060;-91
2023/12/03 00:36:13;;;;;;;24.85;13.07;;;-1.70;88.00;;;;;;4999694;28;20072;-92
2023/12/03 00:38:41;;;;;;;21.45;12.18;;;-1.60;87.60;;;;;;5016949;28;20044;-92
2023/12/03 00:41:07;;;;;;;25.88;15.07;;;-1.70;88.00;;;;;;5002529;28;20022;-91
2023/12/03 00:43:33;;;;;;;27.42;14.60;;;-1.60;88.70;;;;;;5020508;28;20022;-91
2023/12/03 00:46:00;;;;;;;24.95;14.43;;;-1.60;89.50;;;;;;5004953;28;20037;-91
2023/12/03 00:48:34;;;;;;;21.73;14.70;;;-1.60;87.80;;;;;;5012106;28;20038;-89
2023/12/03 00:50:59;;;;;;;22.95;12.75;;;-1.60;88.40;;;;;;5016246;28;20492;-92
2023/12/03 00:53:25;;;;;;;24.90;13.68;;;-1.70;87.90;;;;;;5018957;28;20037;-92
2023/12/03 00:55:54;;;;;;;22.40;13.60;;;-1.60;88.20;;;;;;5016524;28;20503;-90
2023/12/03 00:58:20;;;;;;;25.63;13.50;;;-1.60;87.30;;;;;;5020214;28;20032;-91
2023/12/03 01:00:46;;;;;;;27.08;15.20;;;-1.70;87.30;;;;;;4993442;28;20095;-90
2023/12/03 01:03:14;;;;;;;22.73;13.07;;;-1.70;87.90;;;;;;5019704;28;20041;-92
2023/12/03 01:05:39;;;;;;;25.52;14.35;;;-1.70;88.20;;;;;;5023243;28;20092;-91
2023/12/03 01:08:05;;;;;;;22.77;13.75;;;-1.70;87.70;;;;;;5023967;28;20105;-91
2023/12/03 01:10:31;;;;;;;25.40;13.45;;;-1.60;87.80;;;;;;4998841;28;20049;-92
2023/12/03 01:12:57;;;;;;;26.00;15.73;;;-1.60;88.30;;;;;;5001936;28;20026;-91
2023/12/03 01:15:24;;;;;;;26.13;12.35;;;-1.70;88.40;;;;;;5024410;28;20324;-92
2023/12/03 01:17:50;;;;;;;25.42;12.30;;;-1.70;88.30;;;;;;5023366;28;20018;-92
2023/12/03 01:20:16;;;;;;;26.73;12.82;;;-1.60;88.00;;;;;;5003468;28;20037;-93
2023/12/03 01:22:42;;;;;;;23.23;12.50;;;-1.70;88.60;;;;;;5023366;28;20026;-91
2023/12/03 01:25:08;;;;;;;21.80;14.35;;;-1.70;88.60;;;;;;5009271;28;20030;-91
2023/12/03 01:27:33;;;;;;;24.17;14.43;;;-1.70;88.30;;;;;;5004468;28;20065;-90
2023/12/03 01:30:02;;;;;;;24.33;13.63;;;-1.70;88.50;;;;;;5009700;28;20419;-92
2023/12/03 01:32:30;;;;;;;24.85;13.85;;;-1.70;88.60;;;;;;5017621;28;20032;-91
2023/12/03 01:34:56;;;;;;;24.45;13.05;;;-1.70;88.30;;;;;;5003882;28;20030;-89
2023/12/03 01:37:27;;;;;;;27.42;14.73;;;-1.70;88.10;;;;;;5020313;28;20029;-92
2023/12/03 01:39:53;;;;;;;24.95;13.60;;;-1.70;87.90;;;;;;5021872;28;20057;-92
2023/12/03 01:42:20;;;;;;;24.42;12.80;;;-1.80;87.40;;;;;;5007217;28;20033;-91
2023/12/03 01:44:46;;;;;;;25.08;12.82;;;-1.80;87.70;;;;;;5005563;28;20046;-90
2023/12/03 01:47:13;;;;;;;23.38;13.35;;;-1.80;88.10;;;;;;5004733;28;20026;-90
2023/12/03 01:49:40;;;;;;;23.67;13.75;;;-1.80;88.10;;;;;;5020984;28;20037;-93
2023/12/03 01:52:06;;;;;;;23.90;13.27;;;-1.80;87.30;;;;;;4998879;28;20718;-91
2023/12/03 01:54:36;;;;;;;26.05;14.85;;;-1.80;88.10;;;;;;5022028;28;20036;-91
2023/12/03 01:57:02;;;;;;;22.10;13.65;;;-1.80;87.90;;;;;;5006011;28;20022;-91
2023/12/03 01:59:27;;;;;;;25.75;13.30;;;-1.90;88.10;;;;;;5022194;28;20030;-91
2023/12/03 02:01:53;;;;;;;27.95;14.55;;;-1.90;88.60;;;;;;5010065;28;20056;-91
2023/12/03 02:04:22;;;;;;;26.38;14.50;;;-1.90;89.40;;;;;;5022350;28;20033;-91
2023/12/03 02:06:48;;;;;;;28.48;12.43;;;-1.90;89.00;;;;;;5004515;28;20033;-92
2023/12/03 02:09:16;;;;;;;29.88;13.68;;;-1.90;89.50;;;;;;5000170;28;20032;-91
2023/12/03 02:11:46;;;;;;;23.85;14.07;;;-2.00;90.60;;;;;;5023510;28;20049;-92
2023/12/03 02:14:13;;;;;;;26.05;15.20;;;-2.00;89.00;;;;;;5004694;28;20030;-92
2023/12/03 02:16:48;;;;;;;23.88;12.98;;;-2.10;87.80;;;;;;4997443;28;20026;-91
2023/12/03 02:19:15;;;;;;;25.67;15.05;;;-2.00;88.20;;;;;;5011257;28;20026;-94
2023/12/03 02:21:41;;;;;;;21.77;13.80;;;-2.00;88.60;;;;;;5019974;28;20042;-91
2023/12/03 02:24:10;;;;;;;25.33;15.00;;;-2.10;88.70;;;;;;5023230;28;20104;-92
2023/12/03 02:26:35;;;;;;;25.63;12.68;;;-2.10;88.80;;;;;;5021202;28;20026;-91
2023/12/03 02:29:01;;;;;;;23.77;13.77;;;-2.10;88.90;;;;;;5024840;28;20052;-92
2023/12/03 02:31:33;;;;;;;24.25;13.00;;;-2.10;89.30;;;;;;5022965;28;20030;-91
2023/12/03 02:34:11;;;;;;;26.73;12.75;;;-2.10;89.80;;;;;;5001098;28;20026;-93
2023/12/03 02:36:38;;;;;;;28.42;14.68;;;-2.20;89.10;;;;;;5022594;28;20048;-92
2023/12/03 02:39:03;;;;;;;26.27;13.07;;;-2.20;89.10;;;;;;5009155;28;20025;-92
2023/12/03 02:41:29;;;;;;;33.17;16.42;;;-2.30;89.50;;;;;;5024194;28;20036;-91
2023/12/03 02:43:55;;;;;;;28.52;14.55;;;-2.30;88.80;;;;;;5006621;28;20480;-92
2023/12/03 02:46:21;;;;;;;29.15;14.52;;;-2.30;88.70;;;;;;5001544;28;20095;-91
2023/12/03 02:48:49;;;;;;;25.40;13.45;;;-2.30;88.50;;;;;;5022260;28;20036;-91
2023/12/03 02:51:18;;;;;;;28.05;15.48;;;-2.40;88.20;;;;;;4994074;28;20022;-92
2023/12/03 02:53:45;;;;;;;29.75;14.88;;;-2.50;88.90;;;;;;5009523;28;20022;-93
2023/12/03 02:56:18;;;;;;;28.15;15.50;;;-2.50;89.00;;;;;;5008298;28;20056;-91
2023/12/03 02:58:43;;;;;;;27.33;13.63;;;-2.60;89.00;;;;;;5021128;28;20022;-91
2023/12/03 03:01:09;;;;;;;30.85;16.27;;;-2.60;89.30;;;;;;5018279;28;20072;-92
2023/12/03 03:03:35;;;;;;;29.30;15.73;;;-2.60;89.40;;;;;;5018254;28;20060;-89
2023/12/03 03:06:01;;;;;;;26.80;15.50;;;-2.60;89.30;;;;;;5007061;28;20049;-92
2023/12/03 03:08:27;;;;;;;25.98;13.60;;;-2.70;89.40;;;;;;4999433;28;20033;-92
2023/12/03 03:10:52;;;;;;;24.95;14.77;;;-2.70;90.10;;;;;;5013174;28;20661;-93
2023/12/03 03:13:18;;;;;;;30.15;17.08;;;-2.70;89.80;;;;;;5004572;28;20034;-91
2023/12/03 03:15:44;;;;;;;32.00;15.82;;;-2.70;90.20;;;;;;5013459;28;20033;-91
2023/12/03 03:18:09;;;;;;;27.40;13.93;;;-2.80;90.20;;;;;;5018871;28;20022;-92
2023/12/03 03:20:35;;;;;;;29.98;14.73;;;-2.80;90.20;;;;;;5015918;28;20022;-91
2023/12/03 03:23:01;;;;;;;26.00;14.65;;;-2.80;90.40;;;;;;5000037;28;20080;-91
2023/12/03 03:25:27;;;;;;;30.58;15.18;;;-2.80;90.90;;;;;;5017067;28;20071;-93
2023/12/03 03:27:53;;;;;;;30.52;15.65;;;-2.90;91.10;;;;;;5002507;28;20062;-91
2023/12/03 03:30:18;;;;;;;27.55;14.55;;;-2.90;91.60;;;;;;5004471;28;20034;-92
2023/12/03 03:32:47;;;;;;;31.15;14.48;;;-2.90;92.00;;;;;;5006740;28;20025;-92
2023/12/03 03:35:13;;;;;;;25.95;13.85;;;-2.90;92.40;;;;;;5005200;28;20057;-90
2023/12/03 03:37:39;;;;;;;27.77;14.10;;;-2.90;92.30;;;;;;5023552;28;20041;-91
2023/12/03 03:40:06;;;;;;;30.10;15.90;;;-2.90;92.30;;;;;;5023234;28;20030;-91
2023/12/03 03:42:32;;;;;;;25.77;14.80;;;-2.90;92.20;;;;;;5008998;28;20094;-92
2023/12/03 03:44:57;;;;;;;27.85;14.30;;;-2.90;92.70;;;;;;5003637;28;20219;-92
2023/12/03 03:47:24;;;;;;;25.65;13.27;;;-3.00;93.10;;;;;;5021708;28;20030;-91
2023/12/03 03:49:52;;;;;;;27.70;14.25;;;-3.00;93.10;;;;;;5009232;28;20033;-91
2023/12/03 03:52:18;;;;;;;28.15;15.02;;;-3.10;94.10;;;;;;5007385;28;20137;-90
2023/12/03 03:54:44;;;;;;;25.63;14.55;;;-3.00;93.40;;;;;;4993642;28;20503;-89
2023/12/03 03:57:10;;;;;;;27.75;15.38;;;-3.10;93.60;;;;;;5016023;28;20551;-91
2023/12/03 03:59:38;;;;;;;25.77;12.27;;;-3.10;93.70;;;;;;5015266;28;20054;-90
2023/12/03 04:02:04;;;;;;;26.00;13.57;;;-3.10;93.90;;;;;;5000271;28;20049;-91
2023/12/03 04:04:30;;;;;;;27.10;14.50;;;-3.10;94.30;;;;;;5003957;28;20034;-92
2023/12/03 04:06:55;;;;;;;25.08;13.25;;;-3.10;94.60;;;;;;5019637;28;20477;-92
2023/12/03 04:09:21;;;;;;;27.92;15.68;;;-3.10;95.20;;;;;;5021390;28;20269;-91
2023/12/03 04:11:47;;;;;;;29.05;14.65;;;-3.10;95.30;;;;;;4990229;28;20042;-91
2023/12/03 04:14:15;;;;;;;29.60;15.52;;;-3.20;94.90;;;;;;5002028;28;20490;-91
2023/12/03 04:16:42;;;;;;;28.83;14.35;;;-3.10;95.10;;;;;;5002833;28;20038;-91
2023/12/03 04:19:08;;;;;;;23.58;13.80;;;-3.20;95.40;;;;;;5002601;28;20022;-90
2023/12/03 04:21:36;;;;;;;27.60;13.82;;;-3.20;95.60;;;;;;5018733;28;20076;-90
2023/12/03 04:24:02;;;;;;;32.15;15.57;;;-3.20;95.90;;;;;;5013810;28;20064;-92
2023/12/03 04:26:28;;;;;;;24.63;12.40;;;-3.20;96.00;;;;;;5017289;28;20029;-92
2023/12/03 04:28:54;;;;;;;25.90;14.75;;;-3.20;95.80;;;;;;5019046;28;20034;-91
2023/12/03 04:31:28;;;;;;;24.85;13.73;;;-3.30;96.40;;;;;;5019547;28;20080;-91
2023/12/03 04:33:55;;;;;;;26.60;12.82;;;-3.40;97.10;;;;;;5003049;28;20034;-92
2023/12/03 04:36:25;;;;;;;31.30;15.50;;;-3.30;97.30;;;;;;5002352;28;20072;-91
2023/12/03 04:38:51;;;;;;;27.15;13.88;;;-3.40;97.20;;;;;;5020408;28;20098;-91
2023/12/03 04:41:17;;;;;;;30.42;16.35;;;-3.40;96.90;;;;;;4995136;28;20037;-93
2023/12/03 04:43:45;;;;;;;26.63;15.30;;;-3.40;96.70;;;;;;5016040;28;20503;-92
2023/12/03 04:46:11;;;;;;;25.45;13.13;;;-3.40;96.80;;;;;;5009359;28;20034;-91
2023/12/03 04:48:40;;;;;;;26.98;15.07;;;-3.50;97.00;;;;;;5019689;28;20029;-91
2023/12/03 04:51:06;;;;;;;26.48;13.68;;;-3.50;97.20;;;;;;5020837;28;20029;-91
2023/12/03 04:53:32;;;;;;;30.88;15.32;;;-3.50;97.30;;;;;;5002111;28;20109;-91
2023/12/03 04:55:58;;;;;;;26.52;13.90;;;-3.50;97.70;;;;;;5002086;28;20053;-91
2023/12/03 04:58:25;;;;;;;25.02;15.40;;;-3.60;98.10;;;;;;4999796;28;20045;-91
2023/12/03 05:00:54;;;;;;;27.35;14.68;;;-3.60;98.50;;;;;;5007380;28;20409;-93
2023/12/03 05:03:20;;;;;;;24.23;13.45;;;-3.70;98.70;;;;;;4996520;28;20491;-92
2023/12/03 05:05:46;;;;;;;28.55;14.00;;;-3.60;98.90;;;;;;5019066;28;20025;-91
2023/12/03 05:08:12;;;;;;;29.92;15.07;;;-3.70;99.40;;;;;;4997703;28;20026;-92
2023/12/03 05:10:40;;;;;;;32.03;18.20;;;-3.70;99.40;;;;;;5001231;28;20262;-92
2023/12/03 05:13:06;;;;;;;;;;;-3.80;99.60;;;;;;5010483;28;20439;-93
2023/12/03 05:15:31;;;;;;;22.30;11.50;;;-3.80;99.80;;;;;;5018377;28;19910;-93
2023/12/03 05:17:57;;;;;;;22.30;13.48;;;-3.70;99.80;;;;;;5001373;28;20018;-90
2023/12/03 05:20:23;;;;;;;24.45;13.32;;;-3.70;99.90;;;;;;5018828;28;20068;-91
2023/12/03 05:22:51;;;;;;;27.40;15.23;;;-3.80;99.80;;;;;;4996263;28;20031;-92
2023/12/03 05:25:18;;;;;;;23.75;13.57;;;-3.80;99.80;;;;;;5001613;28;20098;-90
2023/12/03 05:27:44;;;;;;;30.00;15.27;;;-3.80;99.90;;;;;;5019849;28;20014;-93
2023/12/03 05:30:12;;;;;;;23.35;13.27;;;-3.80;99.90;;;;;;5009031;28;20035;-92
2023/12/03 05:32:37;;;;;;;23.70;12.80;;;-3.80;99.90;;;;;;5000586;28;20025;-91
2023/12/03 05:35:03;;;;;;;25.55;14.52;;;-3.80;99.90;;;;;;4999536;28;20121;-91
2023/12/03 05:37:29;;;;;;;26.08;13.07;;;-3.80;99.90;;;;;;4998181;28;20045;-91
2023/12/03 05:39:55;;;;;;;27.15;14.23;;;-3.80;99.90;;;;;;5019514;28;20594;-94
2023/12/03 05:42:21;;;;;;;28.40;15.25;;;-3.80;99.90;;;;;;5000707;28;20109;-92
2023/12/03 05:44:47;;;;;;;27.52;15.65;;;-3.80;99.90;;;;;;5000228;28;20026;-91
2023/12/03 05:47:12;;;;;;;20.80;13.55;;;-3.90;99.90;;;;;;5018390;28;20032;-90
2023/12/03 05:49:39;;;;;;;29.45;15.60;;;-3.80;99.90;;;;;;5022818;28;20649;-90
2023/12/03 05:52:04;;;;;;;27.70;14.25;;;-3.80;99.90;;;;;;5021091;28;20022;-91
2023/12/03 05:54:30;;;;;;;23.10;13.18;;;-3.90;99.90;;;;;;4999682;28;20045;-90
2023/12/03 05:56:56;;;;;;;22.88;14.27;;;-3.90;99.90;;;;;;5023938;28;20022;-91
2023/12/03 05:59:25;;;;;;;26.08;13.27;;;-3.90;99.90;;;;;;5003919;28;20040;-90
2023/12/03 06:01:51;;;;;;;27.00;12.98;;;-3.90;99.90;;;;;;5016179;28;20022;-91
2023/12/03 06:04:23;;;;;;;28.48;14.32;;;-3.90;99.90;;;;;;5023188;28;20022;-90
2023/12/03 06:06:48;;;;;;;21.65;14.18;;;-3.90;99.90;;;;;;5004444;28;20014;-91
2023/12/03 06:09:14;;;;;;;23.10;13.95;;;-3.90;99.90;;;;;;5008455;28;20033;-91
2023/12/03 06:11:40;;;;;;;24.40;12.50;;;-3.90;99.90;;;;;;5018148;28;20022;-92
2023/12/03 06:14:08;;;;;;;22.05;13.43;;;-3.90;99.90;;;;;;5011570;28;20041;-92
2023/12/03 06:16:34;;;;;;;23.67;14.05;;;-3.90;99.90;;;;;;5005154;28;20053;-91
2023/12/03 06:18:59;;;;;;;24.02;12.32;;;-3.90;99.90;;;;;;5008870;28;20064;-91
2023/12/03 06:21:25;;;;;;;26.38;15.57;;;-4.00;99.90;;;;;;5020922;28;20021;-92
2023/12/03 06:23:52;;;;;;;22.13;12.80;;;-4.00;99.90;;;;;;5014757;28;20037;-91
2023/12/03 06:26:17;;;;;;;28.65;14.30;;;-4.00;99.90;;;;;;5020512;28;20057;-91
2023/12/03 06:28:43;;;;;;;24.02;13.52;;;-4.00;99.90;;;;;;5004504;28;20038;-92
2023/12/03 06:31:09;;;;;;;23.17;12.98;;;-4.00;99.90;;;;;;5018945;28;20407;-91
2023/12/03 06:33:38;;;;;;;22.75;11.65;;;-4.00;99.90;;;;;;5006787;28;20030;-90
2023/12/03 06:36:04;;;;;;;25.38;13.60;;;-4.00;99.90;;;;;;5007960;28;20026;-91
2023/12/03 06:38:30;;;;;;;25.40;13.40;;;-4.10;99.90;;;;;;5012248;28;20042;-91
2023/12/03 06:40:56;;;;;;;29.98;14.60;;;-4.10;99.90;;;;;;5024604;28;20022;-91
2023/12/03 06:43:21;;;;;;;22.33;11.55;;;-4.10;99.90;;;;;;5002185;28;20086;-91
2023/12/03 06:45:47;;;;;;;21.80;12.40;;;-4.10;99.90;;;;;;5021317;28;20022;-92
2023/12/03 06:48:13;;;;;;;27.88;13.25;;;-4.10;99.90;;;;;;5022817;28;20022;-93
2023/12/03 06:50:39;;;;;;;21.38;11.75;;;-4.00;99.90;;;;;;5005842;28;20044;-91
2023/12/03 06:53:04;;;;;;;24.98;14.15;;;-4.10;99.90;;;;;;5012612;28;20036;-92
2023/12/03 06:55:33;;;;;;;21.58;12.38;;;-4.10;99.90;;;;;;5022293;28;20057;-92
2023/12/03 06:57:59;;;;;;;22.13;12.77;;;-4.10;99.90;;;;;;5018034;28;20017;-92
2023/12/03 07:00:24;;;;;;;21.90;11.40;;;-4.10;99.90;;;;;;5016033;28;20358;-90
2023/12/03 07:02:50;;;;;;;24.70;12.45;;;-4.10;99.90;;;;;;5021716;28;20034;-90
2023/12/03 07:05:17;;;;;;;23.58;12.05;;;-4.10;99.90;;;;;;5004135;28;20057;-91
2023/12/03 07:07:43;;;;;;;24.35;12.25;;;-4.10;99.90;;;;;;5021109;28;20515;-92
2023/12/03 07:10:09;;;;;;;22.45;14.15;;;-4.10;99.90;;;;;;5020635;28;20060;-91
2023/12/03 07:12:35;;;;;;;21.73;12.50;;;-4.10;99.90;;;;;;5002297;28;20033;-91
2023/12/03 07:15:01;;;;;;;22.88;14.32;;;-4.10;99.90;;;;;;5021499;28;20038;-92
2023/12/03 07:17:26;;;;;;;24.83;12.27;;;-4.10;99.90;;;;;;5020238;28;20504;-91
2023/12/03 07:19:53;;;;;;;22.20;13.15;;;-4.10;99.90;;;;;;5018073;28;20480;-91
2023/12/03 07:22:18;;;;;;;23.60;12.45;;;-4.10;99.90;;;;;;5022285;28;20088;-91
2023/12/03 07:24:44;;;;;;;26.02;12.93;;;-4.10;99.90;;;;;;5019042;28;20423;-89
2023/12/03 07:27:10;;;;;;;20.42;12.20;;;-4.00;99.90;;;;;;5023982;28;20018;-91
2023/12/03 07:29:36;;;;;;;21.73;11.98;;;-3.90;99.90;;;;;;4997588;28;20034;-91
2023/12/03 07:32:02;;;;;;;25.90;13.27;;;-3.90;99.90;;;;;;5004210;28;20087;-91
2023/12/03 07:34:37;;;;;;;19.50;11.13;;;-3.90;99.90;;;;;;4993455;28;20424;-92
2023/12/03 07:37:02;;;;;;;;;;;-4.00;99.90;;;;;;5007981;28;20029;-91
2023/12/03 07:39:29;;;;;;;21.98;11.70;;;-4.00;99.90;;;;;;5000909;28;19909;-92
2023/12/03 07:42:00;;;;;;;21.92;9.90;;;-4.10;99.90;;;;;;5019941;28;20086;-91
2023/12/03 07:44:30;;;;;;;20.92;10.63;;;-4.10;99.90;;;;;;5013866;28;20034;-94
2023/12/03 07:46:55;;;;;;;21.92;12.77;;;-4.10;99.90;;;;;;5023642;28;20018;-94
2023/12/03 07:49:21;;;;;;;20.02;11.07;;;-4.10;99.90;;;;;;5009149;28;20037;-92
2023/12/03 07:51:53;;;;;;;23.60;12.07;;;-4.10;99.90;;;;;;5019649;28;20038;-92
2023/12/03 07:54:24;;;;;;;21.95;11.80;;;-4.10;99.90;;;;;;5023807;28;20044;-92
2023/12/03 07:57:00;;;;;;;20.88;12.70;;;-4.00;99.90;;;;;;5004957;28;20037;-93
2023/12/03 07:59:29;;;;;;;18.52;12.00;;;-4.00;99.90;;;;;;5007087;28;20100;-92
2023/12/03 08:01:54;;;;;;;;;;;-4.00;99.90;;;;;;5020437;28;20049;-92
2023/12/03 08:04:25;;;;;;;14.57;8.43;;;-4.00;99.90;;;;;;5021789;28;19906;-92
2023/12/03 08:06:50;;;;;;;22.00;11.75;;;-4.00;99.90;;;;;;5015852;28;20022;-93
2023/12/03 08:09:16;;;;;;;20.40;11.45;;;-4.00;99.90;;;;;;5013717;28;20036;-93
2023/12/03 08:11:42;;;;;;;22.85;11.90;;;-4.00;99.90;;;;;;5019238;28;20025;-91
2023/12/03 08:14:10;;;;;;;17.13;9.88;;;-4.00;99.90;;;;;;4990084;28;20106;-92
2023/12/03 08:16:38;;;;;;;20.70;11.10;;;-4.00;99.90;;;;;;5015420;28;20040;-93
2023/12/03 08:19:04;;;;;;;20.65;11.85;;;-3.90;99.90;;;;;;5018926;28;20030;-92
2023/12/03 08:21:33;;;;;;;21.02;9.90;;;-3.90;99.90;;;;;;5020678;28;20727;-91
2023/12/03 08:24:01;;;;;;;21.30;13.20;;;-3.80;99.90;;;;;;4993405;28;20049;-92
2023/12/03 08:26:29;;;;;;;22.63;11.10;;;-3.70;99.90;;;;;;4976874;28;20038;-91
2023/12/03 08:28:55;;;;;;;19.08;11.60;;;-3.60;99.90;;;;;;4964372;28;20027;-93
2023/12/03 08:31:29;;;;;;;21.40;11.52;;;-3.60;99.90;;;;;;4975818;28;20655;-92
2023/12/03 08:33:54;;;;;;;18.85;10.68;;;-3.60;99.90;;;;;;4981868;28;20071;-92
2023/12/03 08:36:20;;;;;;;21.85;13.52;;;-3.50;99.90;;;;;;4970820;28;20340;-92
2023/12/03 08:38:46;;;;;;;19.13;11.30;;;-3.40;99.90;;;;;;4981000;28;20022;-92
2023/12/03 08:41:18;;;;;;;23.33;13.07;;;-3.40;99.90;;;;;;4958443;28;20456;-93
2023/12/03 08:43:43;;;;;;;20.42;12.77;;;-3.30;99.90;;;;;;4964292;28;20031;-91
2023/12/03 08:46:09;;;;;;;24.10;14.38;;;-3.20;99.90;;;;;;4981271;28;20033;-93
2023/12/03 08:48:35;;;;;;;22.05;12.40;;;-3.20;99.90;;;;;;4959356;28;20494;-91
2023/12/03 08:51:01;;;;;;;27.20;14.38;;;-3.10;99.90;;;;;;4962620;28;20046;-91
2023/12/03 08:53:27;;;;;;;23.92;12.73;;;-3.10;99.90;;;;;;4977464;28;20027;-91
2023/12/03 08:55:53;;;;;;;24.10;14.02;;;-3.00;99.90;;;;;;4961738;28;20027;-91
2023/12/03 08:58:18;;;;;;;21.90;13.05;;;-2.90;99.90;;;;;;4974995;28;20027;-90
2023/12/03 09:00:44;;;;;;;27.05;13.20;;;-2.80;99.90;;;;;;4957673;28;20019;-94
2023/12/03 09:03:09;;;;;;;29.77;14.93;;;-2.70;99.40;;;;;;4980902;28;20019;-91
2023/12/03 09:05:35;;;;;;;26.45;12.05;;;-2.70;98.50;;;;;;4980967;28;20015;-92
2023/12/03 09:08:00;;;;;;;24.42;15.48;;;-2.60;98.20;;;;;;4977574;28;20038;-93
2023/12/03 09:10:26;;;;;;;20.92;13.00;;;-2.50;97.70;;;;;;4944135;29;20047;-90
2023/12/03 09:12:52;;;;;;;22.40;12.52;;;-2.50;98.20;;;;;;4977664;28;20027;-92
2023/12/03 09:15:17;;;;;;;24.40;13.00;;;-2.40;98.10;;;;;;4964042;28;20035;-92
2023/12/03 09:17:43;;;;;;;24.42;13.18;;;-2.40;97.80;;;;;;4945120;28;20035;-93
2023/12/03 09:20:09;;;;;;;22.10;12.25;;;-2.30;97.80;;;;;;4950663;29;20023;-90
2023/12/03 09:22:35;;;;;;;22.63;13.23;;;-2.20;96.40;;;;;;4971296;28;20496;-91
2023/12/03 09:25:00;;;;;;;22.85;13.20;;;-2.20;97.10;;;;;;4977812;28;20234;-91
2023/12/03 09:27:26;;;;;;;25.67;13.32;;;-2.20;96.10;;;;;;4974425;28;20034;-90
2023/12/03 09:29:55;;;;;;;23.05;12.35;;;-2.10;96.50;;;;;;4983423;28;20039;-93
2023/12/03 09:32:21;;;;;;;20.27;13.98;;;-2.00;95.80;;;;;;4971543;28;20026;-91
2023/12/03 09:34:46;;;;;;;21.20;13.02;;;-2.00;95.50;;;;;;4960023;28;20030;-91
2023/12/03 09:37:12;;;;;;;24.83;14.45;;;-1.90;95.60;;;;;;4963032;28;20054;-91
2023/12/03 09:39:39;;;;;;;23.83;12.15;;;-1.80;94.80;;;;;;4977110;28;20023;-91
2023/12/03 09:42:09;;;;;;;24.13;13.48;;;-1.70;93.90;;;;;;4973008;28;20085;-90
2023/12/03 09:44:48;;;;;;;26.45;14.65;;;-1.60;94.20;;;;;;4966104;28;20434;-91
2023/12/03 09:47:14;;;;;;;26.65;14.85;;;-1.50;94.90;;;;;;4976194;28;20027;-93
2023/12/03 09:49:45;;;;;;;22.42;12.98;;;-1.50;92.80;;;;;;4950940;28;20109;-92
2023/12/03 09:52:12;;;;;;;27.27;15.63;;;-1.30;92.70;;;;;;4962124;28;20033;-93
2023/12/03 09:54:38;;;;;;;26.33;12.68;;;-1.30;91.80;;;;;;4980486;28;20019;-93
2023/12/03 09:57:07;;;;;;;25.17;14.80;;;-1.10;92.30;;;;;;4981202;28;20481;-91
2023/12/03 09:59:37;;;;;;;22.85;13.63;;;-1.00;91.00;;;;;;4982670;28;20031;-92
2023/12/03 10:02:04;;;;;;;22.88;12.23;;;-0.90;90.60;;;;;;4965731;28;20023;-91
2023/12/03 10:04:30;;;;;;;21.80;13.45;;;-0.80;89.50;;;;;;4968158;28;20375;-92
2023/12/03 10:06:58;;;;;;;22.40;13.20;;;-0.70;89.60;;;;;;4946961;29;20020;-92
2023/12/03 10:09:25;;;;;;;26.63;16.85;;;-0.60;88.80;;;;;;4979619;28;20058;-89
2023/12/03 10:11:58;;;;;;;21.70;13.40;;;-0.50;87.30;;;;;;4984342;28;20058;-91
2023/12/03 10:14:27;;;;;;;25.50;12.63;;;-0.40;86.10;;;;;;4984756;28;20031;-91
2023/12/03 10:16:53;;;;;;;21.42;13.18;;;-0.30;85.60;;;;;;4987235;28;20073;-93
2023/12/03 10:19:26;;;;;;;23.48;14.73;;;-0.10;85.70;;;;;;4971754;28;20114;-91
2023/12/03 10:21:55;;;;;;;23.60;12.90;;;0.00;83.70;;;;;;4971283;28;20027;-92
2023/12/03 10:24:24;;;;;;;25.15;13.65;;;0.10;84.50;;;;;;4985475;28;20038;-91
2023/12/03 10:26:54;;;;;;;21.50;13.15;;;0.20;83.60;;;;;;4960645;28;20037;-91
2023/12/03 10:29:23;;;;;;;21.08;13.48;;;0.30;83.20;;;;;;4968500;28;20035;-91
2023/12/03 10:31:50;;;;;;;22.83;15.13;;;0.40;83.00;;;;;;4965344;28;20134;-91
2023/12/03 10:34:17;;;;;;;23.20;16.00;;;0.40;83.30;;;;;;4972503;28;20037;-92
2023/12/03 10:36:55;;;;;;;28.48;14.98;;;0.60;82.50;;;;;;4955165;28;20027;-92
2023/12/03 10:39:21;;;;;;;24.88;13.95;;;0.70;81.90;;;;;;4994214;28;20090;-90
2023/12/03 10:41:51;;;;;;;23.50;14.00;;;0.80;81.60;;;;;;4980001;28;20022;-95
2023/12/03 10:44:28;;;;;;;23.80;13.70;;;0.80;80.20;;;;;;4999873;28;20038;-93
2023/12/03 10:46:56;;;;;;;26.23;14.93;;;0.80;81.00;;;;;;4968673;28;20003;-93
2023/12/03 10:49:25;;;;;;;25.48;13.13;;;0.90;80.50;;;;;;4998234;23;20147;-92
2023/12/03 10:51:54;;;;;;;;;;;0.90;81.70;;;;;;4965175;29;20020;-92
2023/12/03 10:54:19;;;;;;;21.25;14.63;;;1.30;79.70;;;;;;4947201;29;19910;-91
2023/12/03 10:56:49;;;;;;;26.73;13.95;;;1.50;79.80;;;;;;4967086;28;20130;-92
2023/12/03 10:59:29;;;;;;;21.08;13.70;;;1.60;77.50;;;;;;4934738;29;20028;-91
2023/12/03 11:02:11;;;;;;;25.55;15.02;;;1.60;76.40;;;;;;4967144;29;20023;-93
2023/12/03 11:04:58;;;;;;;24.23;14.50;;;1.70;77.10;;;;;;4950463;29;20039;-92
2023/12/03 11:07:25;;;;;;;19.92;13.57;;;2.00;77.30;;;;;;4966978;29;20031;-92
2023/12/03 11:09:53;;;;;;;25.05;14.75;;;2.30;74.70;;;;;;4969109;29;20019;-93
2023/12/03 11:12:22;;;;;;;24.83;14.55;;;2.40;74.00;;;;;;4975694;29;20023;-93
2023/12/03 11:14:52;;;;;;;20.48;12.23;;;2.20;73.30;;;;;;4967731;29;20034;-93
2023/12/03 11:17:47;;;;;;;19.15;13.32;;;2.40;73.40;;;;;;4967346;29;20074;-92
2023/12/03 11:20:36;;;;;;;19.98;12.43;;;2.50;72.40;;;;;;4882116;29;20089;-92
2023/12/03 11:23:20;;;;;;;17.48;11.80;;;2.50;70.60;;;;;;4948682;29;20035;-92
2023/12/03 11:25:57;;;;;;;19.95;11.68;;;2.80;70.20;;;;;;4960571;28;20062;-93
2023/12/03 11:28:23;;;;;;;19.55;11.75;;;2.90;67.90;;;;;;4961807;29;20040;-92
2023/12/03 11:30:51;;;;;;;16.73;10.82;;;3.00;66.90;;;;;;4969004;29;20038;-91
2023/12/03 11:33:21;;;;;;;16.80;9.82;;;3.10;67.80;;;;;;4967029;29;20057;-91
2023/12/03 11:35:48;;;;;;;20.85;10.60;;;3.10;66.20;;;;;;4966077;29;20038;-93
2023/12/03 11:38:34;;;;;;;16.83;10.57;;;3.30;66.10;;;;;;4947720;29;20024;-92
2023/12/03 11:41:01;;;;;;;14.02;9.40;;;2.80;67.10;;;;;;4946242;29;20073;-92
2023/12/03 11:43:28;;;;;;;17.73;10.68;;;2.50;68.30;;;;;;4964712;29;20031;-92
2023/12/03 11:45:54;;;;;;;14.57;9.35;;;2.90;66.40;;;;;;4965344;28;20015;-92
2023/12/03 11:48:27;;;;;;;14.48;9.30;;;3.00;66.80;;;;;;4964223;29;20027;-92
2023/12/03 11:50:54;;;;;;;16.60;11.02;;;3.20;66.00;;;;;;4948229;29;20070;-92
2023/12/03 11:53:50;;;;;;;14.13;9.45;;;3.20;65.10;;;;;;4947182;29;20055;-93
2023/12/03 11:56:21;;;;;;;13.73;9.20;;;3.20;66.10;;;;;;4933436;29;20086;-92
2023/12/03 11:58:47;;;;;;;16.55;11.38;;;2.80;67.10;;;;;;4963233;28;20034;-93
2023/12/03 12:01:13;;;;;;;16.63;10.60;;;3.00;64.60;;;;;;4965588;29;20019;-94
2023/12/03 12:03:39;;;;;;;14.88;9.15;;;3.10;66.10;;;;;;4965198;28;20023;-93
2023/12/03 12:06:05;;;;;;;18.95;11.27;;;3.40;63.40;;;;;;4949385;29;20030;-93
2023/12/03 12:08:31;;;;;;;15.43;10.27;;;3.80;63.20;;;;;;4966299;29;20067;-92
2023/12/03 12:10:57;;;;;;;13.68;10.13;;;3.40;63.20;;;;;;4965632;29;20038;-92
2023/12/03 12:13:25;;;;;;;15.68;10.88;;;3.60;62.80;;;;;;4966283;29;20023;-92
2023/12/03 12:15:55;;;;;;;20.08;11.85;;;3.70;62.50;;;;;;4969196;29;20042;-93
2023/12/03 12:18:23;;;;;;;17.95;10.60;;;3.60;63.60;;;;;;4966265;29;20020;-92
2023/12/03 12:21:10;;;;;;;16.42;11.40;;;3.30;64.00;;;;;;4966635;28;20502;-93
2023/12/03 12:23:36;;;;;;;16.55;10.95;;;3.50;63.20;;;;;;4939030;29;20023;-93
2023/12/03 12:26:02;;;;;;;18.98;12.13;;;3.70;62.40;;;;;;4942899;29;20028;-93
2023/12/03 12:28:28;;;;;;;18.40;11.00;;;3.70;62.90;;;;;;4930067;29;20066;-92
2023/12/03 12:30:55;;;;;;;18.05;10.15;;;3.50;63.20;;;;;;4946696;29;20028;-94
2023/12/03 12:33:25;;;;;;;16.17;10.90;;;3.90;63.10;;;;;;4931169;29;20055;-93